createdAt,value
2019-01-24T00:01:45.462Z,98020.97
2019-01-24T00:04:16.885Z,98009.19
2019-01-24T00:06:47.398Z,98003.84
2019-01-24T00:09:17.854Z,98005.39
2019-01-24T00:11:48.259Z,98004.67
2019-01-24T00:14:18.751Z,98006.66
2019-01-24T00:16:49.216Z,98002.23
2019-01-24T00:19:19.635Z,98015.55
2019-01-24T00:21:50.091Z,97999.59
2019-01-24T00:24:20.499Z,98002.63
2019-01-24T00:26:50.951Z,97994.80
2019-01-24T00:29:21.403Z,97992.81
2019-01-24T00:31:51.850Z,97989.69
2019-01-24T00:34:23.384Z,97989.59
2019-01-24T00:36:54.102Z,97990.37
2019-01-24T00:39:24.598Z,98001.44
2019-01-24T00:41:55.055Z,98005.09
2019-01-24T00:44:25.471Z,98026.55
2019-01-24T00:46:55.931Z,98022.34
2019-01-24T00:49:26.346Z,98026.50
2019-01-24T00:51:56.756Z,98004.84
2019-01-24T00:54:27.210Z,98005.19
2019-01-24T00:56:57.627Z,98005.85
2019-01-24T00:59:28.176Z,98006.23
2019-01-24T01:01:58.576Z,97997.45
2019-01-24T01:04:29.844Z,97985.34
2019-01-24T01:07:00.502Z,97982.18
2019-01-24T01:09:30.910Z,97978.91
2019-01-24T01:12:01.472Z,97981.08
2019-01-24T01:14:31.883Z,97988.00
2019-01-24T01:17:02.324Z,97986.20
2019-01-24T01:19:32.933Z,97989.05
2019-01-24T01:22:03.489Z,97971.57
2019-01-24T01:24:34.000Z,97967.83
2019-01-24T01:27:04.547Z,97968.14
2019-01-24T01:29:34.971Z,97970.14
2019-01-24T01:32:05.749Z,97958.82
2019-01-24T01:34:36.427Z,97951.80
2019-01-24T01:37:07.195Z,97949.69
2019-01-24T01:39:37.682Z,97945.13
2019-01-24T01:42:08.143Z,97951.94
2019-01-24T01:44:38.548Z,97937.98
2019-01-24T01:47:08.956Z,97947.63
2019-01-24T01:49:39.510Z,97942.80
2019-01-24T01:52:09.962Z,97920.16
2019-01-24T01:54:40.407Z,97835.73
2019-01-24T01:57:10.818Z,97926.50
2019-01-24T01:59:41.263Z,97924.88
2019-01-24T02:02:11.673Z,97925.20
2019-01-24T02:04:43.024Z,97920.34
2019-01-24T02:07:13.723Z,97912.29
2019-01-24T02:09:44.177Z,97912.06
2019-01-24T02:12:14.655Z,97915.63
2019-01-24T02:14:45.078Z,97895.72
2019-01-24T02:17:15.530Z,97888.16
2019-01-24T02:19:45.991Z,97881.13
2019-01-24T02:22:16.391Z,97878.95
2019-01-24T02:24:46.810Z,97887.09
2019-01-24T02:27:17.255Z,97884.95
2019-01-24T02:29:47.679Z,97879.88
2019-01-24T02:32:18.137Z,97868.81
2019-01-24T02:34:49.722Z,97859.13
2019-01-24T02:37:20.282Z,97874.50
2019-01-24T02:39:50.691Z,97886.88
2019-01-24T02:42:21.209Z,97882.59
2019-01-24T02:44:51.746Z,97879.94
2019-01-24T02:47:22.261Z,97876.45
2019-01-24T02:49:52.702Z,97868.92
2019-01-24T02:52:23.111Z,97853.86
2019-01-24T02:54:53.560Z,97848.48
2019-01-24T02:57:24.007Z,97842.53
2019-01-24T02:59:54.551Z,97847.08
2019-01-24T03:02:24.962Z,97860.55
2019-01-24T03:04:57.065Z,97852.52
2019-01-24T03:07:27.574Z,97852.77
2019-01-24T03:09:58.022Z,97848.98
2019-01-24T03:12:28.486Z,97834.16
2019-01-24T03:14:58.907Z,97815.33
2019-01-24T03:17:29.399Z,97802.11
2019-01-24T03:19:59.853Z,97794.32
2019-01-24T03:22:30.302Z,97779.75
2019-01-24T03:25:00.759Z,97748.21
2019-01-24T03:27:31.175Z,97719.03
2019-01-24T03:30:01.732Z,97720.88
2019-01-24T03:32:32.158Z,97720.34
2019-01-24T03:35:04.327Z,97711.16
2019-01-24T03:37:34.750Z,97724.05
2019-01-24T03:40:06.152Z,97729.20
2019-01-24T03:42:36.603Z,97736.23
2019-01-24T03:45:09.902Z,97730.86
2019-01-24T03:47:40.313Z,97728.50
2019-01-24T03:50:13.377Z,97756.55
2019-01-24T03:52:43.963Z,97768.42
2019-01-24T03:55:15.470Z,97778.95
2019-01-24T03:57:45.992Z,97778.16
2019-01-24T04:00:18.556Z,97784.13
2019-01-24T04:02:49.120Z,97775.53
2019-01-24T04:05:19.948Z,97772.84
2019-01-24T04:07:50.627Z,97773.09
2019-01-24T04:10:22.077Z,97775.56
2019-01-24T04:12:52.530Z,97773.13
2019-01-24T04:15:24.902Z,97765.84
2019-01-24T04:17:55.419Z,97762.34
2019-01-24T04:20:25.967Z,97760.77
2019-01-24T04:22:56.386Z,97759.70
2019-01-24T04:25:26.896Z,97764.03
2019-01-24T04:27:57.314Z,97765.66
2019-01-24T04:30:27.829Z,97764.05
2019-01-24T04:32:58.286Z,97762.44
2019-01-24T04:35:28.698Z,97761.63
2019-01-24T04:37:59.118Z,97766.76
2019-01-24T04:40:29.585Z,97767.55
2019-01-24T04:43:00.051Z,97767.56
2019-01-24T04:45:30.505Z,97765.15
2019-01-24T04:48:00.973Z,97763.53
2019-01-24T04:50:31.401Z,97764.89
2019-01-24T04:53:01.808Z,97762.19
2019-01-24T04:55:32.305Z,97762.98
2019-01-24T04:58:02.793Z,97753.01
2019-01-24T05:00:33.359Z,97760.27
2019-01-24T05:03:03.770Z,97752.47
2019-01-24T05:05:34.175Z,97760.29
2019-01-24T05:08:04.630Z,97758.39
2019-01-24T05:10:35.065Z,97759.46
2019-01-24T05:13:05.682Z,97760.29
2019-01-24T05:15:36.145Z,97755.95
2019-01-24T05:18:06.767Z,97757.86
2019-01-24T05:20:37.214Z,97762.17
2019-01-24T05:23:07.630Z,97751.93
2019-01-24T05:25:38.174Z,97763.53
2019-01-24T05:28:08.691Z,97760.27
2019-01-24T05:30:39.144Z,97771.61
2019-01-24T05:33:09.602Z,97776.75
2019-01-24T05:35:40.017Z,97774.33
2019-01-24T05:38:10.438Z,97766.50
2019-01-24T05:40:40.892Z,97769.47
2019-01-24T05:43:11.308Z,97777.28
2019-01-24T05:45:41.771Z,97772.42
2019-01-24T05:48:12.183Z,97773.23
2019-01-24T05:50:42.647Z,97766.77
2019-01-24T05:53:13.126Z,97773.25
2019-01-24T05:55:43.589Z,97769.47
2019-01-24T05:58:14.015Z,97761.90
2019-01-24T06:00:46.241Z,97771.34
2019-01-24T06:03:16.699Z,97762.98
2019-01-24T06:05:47.328Z,97759.20
2019-01-24T06:08:17.778Z,97755.97
2019-01-24T06:10:48.308Z,97757.30
2019-01-24T06:13:18.820Z,97762.45
2019-01-24T06:15:49.270Z,97766.22
2019-01-24T06:18:19.679Z,97765.13
2019-01-24T06:20:50.138Z,97664.22
2019-01-24T06:23:20.557Z,97763.21
2019-01-24T06:25:51.057Z,97766.45
2019-01-24T06:28:21.559Z,97775.34
2019-01-24T06:30:51.988Z,97776.41
2019-01-24T06:33:22.567Z,97780.71
2019-01-24T06:35:52.989Z,97769.09
2019-01-24T06:38:23.453Z,97772.05
2019-01-24T06:40:53.987Z,97774.75
2019-01-24T06:43:24.445Z,97776.88
2019-01-24T06:45:54.934Z,97775.50
2019-01-24T06:48:25.407Z,97770.33
2019-01-24T06:50:55.847Z,97763.56
2019-01-24T06:53:26.352Z,97762.18
2019-01-24T06:55:56.823Z,97757.02
2019-01-24T06:58:27.295Z,97767.00
2019-01-24T07:00:57.762Z,97769.96
2019-01-24T07:03:28.173Z,97775.89
2019-01-24T07:05:58.626Z,97776.97
2019-01-24T07:08:29.057Z,97780.43
2019-01-24T07:10:59.547Z,97781.20
2019-01-24T07:13:29.971Z,97783.89
2019-01-24T07:16:00.437Z,97785.17
2019-01-24T07:18:30.896Z,97788.11
2019-01-24T07:21:01.311Z,97795.62
2019-01-24T07:23:31.778Z,97785.83
2019-01-24T07:26:02.211Z,97787.93
2019-01-24T07:28:32.643Z,97790.06
2019-01-24T07:31:03.214Z,97790.28
2019-01-24T07:33:33.672Z,97784.84
2019-01-24T07:36:04.259Z,97788.30
2019-01-24T07:38:34.685Z,97779.64
2019-01-24T07:41:05.316Z,97788.55
2019-01-24T07:43:35.780Z,97780.97
2019-01-24T07:46:06.635Z,97776.36
2019-01-24T07:48:37.107Z,97780.11
2019-01-24T07:51:07.659Z,97776.79
2019-01-24T07:53:38.140Z,97777.00
2019-01-24T07:56:08.856Z,97783.44
2019-01-24T07:58:39.272Z,97781.04
2019-01-24T08:01:09.802Z,97793.20
2019-01-24T08:03:40.248Z,97781.28
2019-01-24T08:06:10.716Z,97788.89
2019-01-24T08:08:41.182Z,97791.81
2019-01-24T08:11:11.605Z,97792.13
2019-01-24T08:13:42.063Z,97789.17
2019-01-24T08:16:12.660Z,97790.80
2019-01-24T08:18:43.132Z,97798.37
2019-01-24T08:21:13.674Z,97804.32
2019-01-24T08:23:44.136Z,97811.13
2019-01-24T08:26:14.726Z,97817.34
2019-01-24T08:28:45.155Z,97828.96
2019-01-24T08:31:15.723Z,97833.00
2019-01-24T08:33:46.395Z,97827.80
2019-01-24T08:36:16.944Z,97834.05
2019-01-24T08:38:47.377Z,97719.76
2019-01-24T08:41:17.882Z,97824.53
2019-01-24T08:43:48.295Z,97831.92
2019-01-24T08:46:18.711Z,97703.43
2019-01-24T08:48:49.277Z,97845.44
2019-01-24T08:51:19.831Z,97855.05
2019-01-24T08:53:50.272Z,97849.63
2019-01-24T08:56:20.705Z,97856.48
2019-01-24T08:58:51.370Z,97858.14
2019-01-24T09:01:21.843Z,97858.94
2019-01-24T09:03:52.287Z,97849.25
2019-01-24T09:06:22.900Z,97859.53
2019-01-24T09:08:55.911Z,97866.30
2019-01-24T09:11:26.420Z,97862.21
2019-01-24T09:13:56.829Z,97863.05
2019-01-24T09:16:27.287Z,97874.45
2019-01-24T09:18:57.880Z,97750.83
2019-01-24T09:21:28.351Z,97874.72
2019-01-24T09:23:58.794Z,97873.87
2019-01-24T09:26:29.270Z,97876.33
2019-01-24T09:28:59.745Z,97878.25
2019-01-24T09:31:30.174Z,97877.70
2019-01-24T09:34:00.639Z,97876.08
2019-01-24T09:36:31.351Z,97874.73
2019-01-24T09:39:02.303Z,97869.61
2019-01-24T09:41:32.714Z,97862.08
2019-01-24T09:44:03.200Z,97860.16
2019-01-24T09:46:33.617Z,97857.99
2019-01-24T09:49:04.207Z,97856.66
2019-01-24T09:51:34.679Z,97866.11
2019-01-24T09:54:05.503Z,97855.83
2019-01-24T09:56:36.003Z,97846.63
2019-01-24T09:59:06.997Z,97843.66
2019-01-24T10:01:37.422Z,97843.65
2019-01-24T10:04:07.896Z,97843.95
2019-01-24T10:06:38.327Z,97833.39
2019-01-24T10:09:09.645Z,97833.13
2019-01-24T10:11:40.091Z,97832.34
2019-01-24T10:14:10.662Z,97841.25
2019-01-24T10:16:41.088Z,97839.33
2019-01-24T10:19:11.543Z,97837.70
2019-01-24T10:21:42.100Z,97843.37
2019-01-24T10:24:12.641Z,97839.58
2019-01-24T10:26:43.065Z,97838.69
2019-01-24T10:29:13.645Z,97841.92
2019-01-24T10:31:44.192Z,97838.15
2019-01-24T10:34:14.648Z,97838.11
2019-01-24T10:36:45.148Z,97686.47
2019-01-24T10:39:15.688Z,97845.84
2019-01-24T10:41:46.218Z,97838.41
2019-01-24T10:44:16.640Z,97839.23
2019-01-24T10:46:47.069Z,97842.94
2019-01-24T10:49:17.531Z,97847.28
2019-01-24T10:51:47.951Z,97847.72
2019-01-24T10:54:18.430Z,97842.02
2019-01-24T10:56:48.864Z,97837.16
2019-01-24T10:59:19.426Z,97829.54
2019-01-24T11:01:49.970Z,97836.73
2019-01-24T11:04:20.410Z,97830.70
2019-01-24T11:06:50.920Z,97831.27
2019-01-24T11:09:21.349Z,97827.72
2019-01-24T11:11:51.768Z,97834.16
2019-01-24T11:14:22.231Z,97828.98
2019-01-24T11:16:52.673Z,97829.10
2019-01-24T11:19:23.240Z,97825.81
2019-01-24T11:21:53.662Z,97824.06
2019-01-24T11:24:24.132Z,97825.11
2019-01-24T11:26:54.590Z,97832.69
2019-01-24T11:29:25.048Z,97831.48
2019-01-24T11:31:55.599Z,97827.91
2019-01-24T11:34:26.167Z,97828.16
2019-01-24T11:36:57.200Z,97829.66
2019-01-24T11:39:27.964Z,97822.83
2019-01-24T11:41:58.534Z,97821.90
2019-01-24T11:44:29.000Z,97825.38
2019-01-24T11:46:59.501Z,97831.59
2019-01-24T11:49:29.936Z,97826.63
2019-01-24T11:52:00.402Z,97828.02
2019-01-24T11:54:30.903Z,97825.75
2019-01-24T11:57:01.368Z,97822.41
2019-01-24T11:59:31.964Z,97826.92
2019-01-24T12:02:02.407Z,97831.39
2019-01-24T12:04:32.888Z,97838.69
2019-01-24T12:07:04.255Z,97838.16
2019-01-24T12:09:35.917Z,97838.85
2019-01-24T12:12:06.598Z,97839.37
2019-01-24T12:14:37.014Z,97839.85
2019-01-24T12:17:07.492Z,97838.94
2019-01-24T12:19:37.990Z,97841.69
2019-01-24T12:22:08.461Z,97835.02
2019-01-24T12:24:38.912Z,97840.17
2019-01-24T12:27:09.331Z,97843.84
2019-01-24T12:29:39.805Z,97846.75
2019-01-24T12:32:10.326Z,97845.72
2019-01-24T12:34:40.810Z,97846.07
2019-01-24T12:37:11.603Z,97843.00
2019-01-24T12:39:42.039Z,97842.55
2019-01-24T12:42:12.474Z,97850.17
2019-01-24T12:44:42.981Z,97852.56
2019-01-24T12:47:13.426Z,97850.30
2019-01-24T12:49:43.858Z,97844.73
2019-01-24T12:52:14.366Z,97851.95
2019-01-24T12:54:44.862Z,97847.88
2019-01-24T12:57:15.279Z,97854.02
2019-01-24T12:59:45.782Z,97863.20
2019-01-24T13:02:16.248Z,97858.75
2019-01-24T13:04:46.778Z,97847.84
2019-01-24T13:07:18.444Z,97841.50
2019-01-24T13:09:49.021Z,97835.00
2019-01-24T13:12:19.485Z,97838.74
2019-01-24T13:14:49.912Z,97846.79
2019-01-24T13:17:20.375Z,97844.53
2019-01-24T13:19:50.790Z,97847.20
2019-01-24T13:22:21.353Z,97851.89
2019-01-24T13:24:51.802Z,97866.20
2019-01-24T13:27:22.254Z,97867.74
2019-01-24T13:29:52.674Z,97861.73
2019-01-24T13:32:23.153Z,97867.92
2019-01-24T13:34:53.713Z,97868.81
2019-01-24T13:37:25.860Z,97873.00
2019-01-24T13:39:56.395Z,97874.81
2019-01-24T13:42:26.996Z,97882.45
2019-01-24T13:44:57.538Z,97883.90
2019-01-24T13:47:28.145Z,97894.52
2019-01-24T13:49:58.622Z,97890.45
2019-01-24T13:52:29.048Z,97894.48
2019-01-24T13:54:59.528Z,97894.28
2019-01-24T13:57:29.952Z,97892.50
2019-01-24T14:00:00.469Z,97901.24
2019-01-24T14:02:30.933Z,97899.00
2019-01-24T14:05:01.409Z,97914.47
2019-01-24T14:07:33.044Z,97915.18
2019-01-24T14:10:03.880Z,97924.17
2019-01-24T14:12:34.358Z,97932.35
2019-01-24T14:15:06.266Z,97935.94
2019-01-24T14:17:36.817Z,97810.88
2019-01-24T14:20:10.656Z,97924.17
2019-01-24T14:22:41.320Z,97927.72
2019-01-24T14:25:14.435Z,97927.13
2019-01-24T14:27:44.901Z,97933.78
2019-01-24T14:30:21.293Z,97940.92
2019-01-24T14:32:52.191Z,97935.14
2019-01-24T14:35:23.032Z,97940.57
2019-01-24T14:37:53.598Z,97942.72
2019-01-24T14:40:24.114Z,97950.03
2019-01-24T14:42:54.572Z,97945.96
2019-01-24T14:45:27.186Z,97858.16
2019-01-24T14:47:57.859Z,97953.75
2019-01-24T14:50:28.711Z,97958.63
2019-01-24T14:52:59.329Z,97908.80
2019-01-24T14:55:29.910Z,97967.67
2019-01-24T14:58:00.419Z,97885.33
2019-01-24T15:00:39.363Z,97977.05
2019-01-24T15:03:09.957Z,97978.77
2019-01-24T15:05:40.546Z,97980.70
2019-01-24T15:11:17.845Z,97990.45
2019-01-24T15:13:48.660Z,97998.64
2019-01-24T15:16:19.382Z,98000.55
2019-01-24T15:18:50.046Z,98000.04
2019-01-24T15:21:20.818Z,98008.24
2019-01-24T15:23:51.355Z,98016.66
2019-01-24T15:26:22.143Z,98015.53
2019-01-24T15:28:52.625Z,98025.89
2019-01-24T15:31:23.189Z,98028.89
2019-01-24T15:33:53.653Z,97930.07
2019-01-24T15:36:24.159Z,98037.27
2019-01-24T15:38:54.685Z,98035.19
2019-01-24T15:41:25.149Z,98030.64
2019-01-24T15:43:55.620Z,98038.72
2019-01-24T15:46:26.096Z,98044.69
2019-01-24T15:48:56.610Z,98046.36
2019-01-24T15:51:27.114Z,98050.70
2019-01-24T15:53:57.579Z,98050.77
2019-01-24T15:56:28.061Z,98047.06
2019-01-24T15:58:58.528Z,98046.52
2019-01-24T16:01:29.087Z,98045.13
2019-01-24T16:03:59.604Z,98048.35
2019-01-24T16:06:30.172Z,98057.05
2019-01-24T16:09:00.654Z,98060.56
2019-01-24T16:11:31.132Z,98062.16
2019-01-24T16:14:01.603Z,98065.19
2019-01-24T16:16:32.174Z,98058.69
2019-01-24T16:19:02.672Z,98067.39
2019-01-24T16:21:33.343Z,98074.70
2019-01-24T16:24:03.938Z,98079.31
2019-01-24T16:26:34.442Z,98085.27
2019-01-24T16:29:05.160Z,98090.98
2019-01-24T16:31:35.674Z,98091.46
2019-01-24T16:34:06.485Z,98093.59
2019-01-24T16:36:36.992Z,98100.34
2019-01-24T16:39:09.984Z,98105.52
2019-01-24T16:41:40.443Z,98107.37
2019-01-24T16:44:10.941Z,98110.33
2019-01-24T16:46:41.436Z,98110.61
2019-01-24T16:49:11.901Z,98114.70
2019-01-24T16:51:42.403Z,98109.59
2019-01-24T16:54:12.870Z,98109.06
2019-01-24T16:56:43.376Z,98106.36
2019-01-24T16:59:13.882Z,98121.50
2019-01-24T17:01:44.433Z,98121.78
2019-01-24T17:04:14.948Z,98124.23
2019-01-24T17:06:45.414Z,98132.88
2019-01-24T17:09:15.990Z,98140.48
2019-01-24T17:11:46.514Z,98144.25
2019-01-24T17:14:22.300Z,98151.80
2019-01-24T17:16:49.132Z,98153.17
2019-01-24T17:19:19.609Z,98160.19
2019-01-24T17:21:50.108Z,98163.98
2019-01-24T17:24:20.570Z,98171.56
2019-01-24T17:26:51.080Z,98172.11
2019-01-24T17:29:21.553Z,98170.20
2019-01-24T17:31:52.015Z,98180.78
2019-01-24T17:34:22.526Z,98179.70
2019-01-24T17:36:53.021Z,98173.19
2019-01-24T17:39:23.490Z,98178.34
2019-01-24T17:41:53.994Z,98188.38
2019-01-24T17:44:24.490Z,98189.73
2019-01-24T17:46:54.974Z,98188.90
2019-01-24T17:49:25.488Z,98194.06
2019-01-24T17:51:55.928Z,98197.58
2019-01-24T17:54:26.437Z,98202.75
2019-01-24T17:56:56.905Z,98202.75
2019-01-24T17:59:27.434Z,98202.20
2019-01-24T18:01:58.154Z,98204.64
2019-01-24T18:04:28.629Z,98195.69
2019-01-24T18:06:59.136Z,98194.61
2019-01-24T18:09:29.604Z,98211.15
2019-01-24T18:12:00.070Z,98207.89
2019-01-24T18:14:30.674Z,98208.44
2019-01-24T18:17:01.133Z,98205.44
2019-01-24T18:19:31.641Z,98208.44
2019-01-24T18:22:02.160Z,98214.43
2019-01-24T18:24:32.626Z,98220.36
2019-01-24T18:27:03.137Z,98221.44
2019-01-24T18:29:33.638Z,98225.80
2019-01-24T18:32:04.354Z,98224.17
2019-01-24T18:34:34.814Z,98228.23
2019-01-24T18:37:05.345Z,98238.28
2019-01-24T18:39:35.789Z,98245.58
2019-01-24T18:42:06.494Z,98254.25
2019-01-24T18:44:36.953Z,98253.45
2019-01-24T18:47:07.457Z,98260.48
2019-01-24T18:49:37.925Z,98262.09
2019-01-24T18:52:08.524Z,98266.45
2019-01-24T18:54:39.002Z,98260.75
2019-01-24T18:57:09.606Z,98260.48
2019-01-24T18:59:40.210Z,98253.44
2019-01-24T19:02:10.722Z,98249.13
2019-01-24T19:04:41.198Z,98253.98
2019-01-24T19:07:13.165Z,98260.50
2019-01-24T19:09:44.168Z,98273.50
2019-01-24T19:12:14.742Z,98286.25
2019-01-24T19:14:45.210Z,98288.16
2019-01-24T19:17:15.734Z,98293.58
2019-01-24T19:19:46.187Z,98296.80
2019-01-24T19:22:16.643Z,98302.51
2019-01-24T19:24:47.158Z,98300.34
2019-01-24T19:27:17.657Z,98306.02
2019-01-24T19:29:48.126Z,98303.04
2019-01-24T19:32:18.654Z,98311.72
2019-01-24T19:34:49.114Z,98308.20
2019-01-24T19:37:19.588Z,98294.91
2019-01-24T19:39:50.086Z,98277.84
2019-01-24T19:42:20.595Z,98272.70
2019-01-24T19:44:51.111Z,98285.17
2019-01-24T19:47:21.565Z,98289.50
2019-01-24T19:49:52.032Z,98295.48
2019-01-24T19:52:22.546Z,98300.61
2019-01-24T19:54:53.013Z,98307.11
2019-01-24T19:57:23.530Z,98314.71
2019-01-24T19:59:54.042Z,98324.73
2019-01-24T20:02:24.519Z,98336.64
2019-01-24T20:04:54.985Z,98341.25
2019-01-24T20:07:25.495Z,98335.84
2019-01-24T20:09:55.969Z,98333.66
2019-01-24T20:12:26.482Z,98349.34
2019-01-24T20:14:56.932Z,98361.30
2019-01-24T20:17:27.468Z,98369.69
2019-01-24T20:19:57.940Z,98365.62
2019-01-24T20:22:28.457Z,98366.17
2019-01-24T20:24:58.955Z,98370.48
2019-01-24T20:27:29.427Z,98377.55
2019-01-24T20:29:59.942Z,98380.25
2019-01-24T20:32:30.983Z,98385.67
2019-01-24T20:35:01.538Z,98385.94
2019-01-24T20:37:32.034Z,98394.29
2019-01-24T20:40:02.540Z,98407.03
2019-01-24T20:42:33.005Z,98414.09
2019-01-24T20:45:03.646Z,98408.95
2019-01-24T20:47:34.108Z,98403.25
2019-01-24T20:50:04.802Z,98402.96
2019-01-24T20:52:35.261Z,98405.95
2019-01-24T20:55:06.681Z,98401.09
2019-01-24T20:57:37.318Z,98403.25
2019-01-24T21:00:13.030Z,98403.25
2019-01-24T21:02:43.693Z,98411.92
2019-01-24T21:05:15.713Z,98418.95
2019-01-24T21:07:46.668Z,98428.98
2019-01-24T21:10:19.426Z,98441.17
2019-01-24T21:12:49.924Z,98450.39
2019-01-24T21:15:21.214Z,98447.39
2019-01-24T21:17:51.723Z,98447.39
2019-01-24T21:20:26.756Z,98456.88
2019-01-24T21:22:57.369Z,98457.41
2019-01-24T21:25:28.425Z,98459.84
2019-01-24T21:27:58.887Z,98461.48
2019-01-24T21:30:34.324Z,98456.33
2019-01-24T21:33:05.049Z,98459.32
2019-01-24T21:35:35.667Z,98374.09
2019-01-24T21:38:07.613Z,98466.86
2019-01-24T21:40:38.109Z,98473.11
2019-01-24T21:43:08.706Z,98483.95
2019-01-24T21:45:39.525Z,98491.23
2019-01-24T21:48:10.274Z,98493.14
2019-01-24T21:50:40.935Z,98496.13
2019-01-24T21:53:11.552Z,98494.49
2019-01-24T21:55:42.061Z,98510.74
2019-01-24T21:58:12.674Z,98514.55
2019-01-24T22:00:43.186Z,98504.77
2019-01-24T22:03:13.693Z,98503.42
2019-01-24T22:05:44.260Z,98504.52
2019-01-24T22:08:14.738Z,98506.67
2019-01-24T22:10:45.414Z,98516.41
2019-01-24T22:13:15.931Z,98515.05
2019-01-24T22:15:46.397Z,98508.53
2019-01-24T22:18:17.002Z,98497.45
2019-01-24T22:20:47.461Z,98492.07
2019-01-24T22:23:17.964Z,98491.78
2019-01-24T22:25:48.425Z,98494.48
2019-01-24T22:28:18.882Z,98513.95
2019-01-24T22:30:54.958Z,98520.20
2019-01-24T22:33:25.459Z,98534.27
2019-01-24T22:35:55.922Z,98533.45
2019-01-24T22:38:26.432Z,98523.72
2019-01-24T22:40:57.010Z,98524.52
2019-01-24T22:43:27.481Z,98526.69
2019-01-24T22:45:58.084Z,98528.33
2019-01-24T22:48:28.590Z,98533.75
2019-01-24T22:50:59.058Z,98522.07
2019-01-24T22:53:29.562Z,98526.98
2019-01-24T22:56:00.053Z,98532.65
2019-01-24T22:58:30.554Z,98558.08
2019-01-24T23:01:30.859Z,98562.13
2019-01-24T23:04:11.325Z,98564.03
2019-01-24T23:06:41.916Z,98570.51
2019-01-24T23:09:13.024Z,98568.89
2019-01-24T23:11:43.487Z,98555.61
2019-01-24T23:14:13.981Z,98533.14
2019-01-24T23:16:44.546Z,98525.82
2019-01-24T23:19:15.015Z,98541.52
2019-01-24T23:21:45.530Z,98547.18
2019-01-24T23:24:15.999Z,98550.38
2019-01-24T23:26:46.509Z,98555.78
2019-01-24T23:29:16.981Z,98550.66
2019-01-24T23:31:47.488Z,98546.60
2019-01-24T23:34:17.953Z,98550.63
2019-01-24T23:36:48.447Z,98540.09
2019-01-24T23:39:18.902Z,98533.57
2019-01-24T23:41:49.401Z,98540.88
2019-01-24T23:44:19.998Z,98530.28
2019-01-24T23:46:50.459Z,98521.37
2019-01-24T23:49:20.973Z,98512.16
2019-01-24T23:51:51.479Z,98493.75
2019-01-24T23:54:21.945Z,98501.02
2019-01-24T23:56:52.448Z,98502.13
2019-01-24T23:59:22.910Z,98515.96
